sensor_id;sensor_type;location;lat;lon;timestamp;pressure;altitude;pressure_sealevel;temperature;humidity
46392;BME280;32098;49.448;7.904;2023-04-20T00:01:24;98257.09;;;3.86;55.65
46392;BME280;32098;49.448;7.904;2023-04-20T00:03:51;98263.19;;;3.87;55.83
46392;BME280;32098;49.448;7.904;2023-04-20T00:06:18;98159.16;;;3.31;55.68
46392;BME280;32098;49.448;7.904;2023-04-20T00:08:47;98237.22;;;3.55;56.04
46392;BME280;32098;49.448;7.904;2023-04-20T00:11:14;98265.34;;;3.62;56.51
46392;BME280;32098;49.448;7.904;2023-04-20T00:13:41;98180.41;;;2.94;57.70
46392;BME280;32098;49.448;7.904;2023-04-20T00:16:08;98225.59;;;3.05;58.45
46392;BME280;32098;49.448;7.904;2023-04-20T00:18:34;98231.84;;;2.90;58.93
46392;BME280;32098;49.448;7.904;2023-04-20T00:21:24;98228.22;;;2.91;59.09
46392;BME280;32098;49.448;7.904;2023-04-20T00:23:51;98217.75;;;2.97;58.41
46392;BME280;32098;49.448;7.904;2023-04-20T00:26:30;98126.75;;;2.35;58.38
46392;BME280;32098;49.448;7.904;2023-04-20T00:28:56;98220.06;;;2.63;60.01
46392;BME280;32098;49.448;7.904;2023-04-20T00:31:26;98125.31;;;1.95;60.58
46392;BME280;32098;49.448;7.904;2023-04-20T00:33:53;98114.44;;;1.98;60.01
46392;BME280;32098;49.448;7.904;2023-04-20T00:36:20;98120.97;;;2.02;60.46
46392;BME280;32098;49.448;7.904;2023-04-20T00:38:47;98060.22;;;1.43;61.64
46392;BME280;32098;49.448;7.904;2023-04-20T00:41:14;98215.03;;;2.16;62.74
46392;BME280;32098;49.448;7.904;2023-04-20T00:43:59;98147.31;;;1.79;63.45
46392;BME280;32098;49.448;7.904;2023-04-20T00:46:26;97921.78;;;0.37;61.57
46392;BME280;32098;49.448;7.904;2023-04-20T00:49:10;98096.91;;;1.90;60.67
46392;BME280;32098;49.448;7.904;2023-04-20T00:51:37;98105.63;;;1.91;60.72
46392;BME280;32098;49.448;7.904;2023-04-20T00:54:04;98167.69;;;2.08;61.56
46392;BME280;32098;49.448;7.904;2023-04-20T00:56:31;98136.75;;;1.87;62.32
46392;BME280;32098;49.448;7.904;2023-04-20T00:59:03;98174.91;;;2.29;62.00
46392;BME280;32098;49.448;7.904;2023-04-20T01:01:30;98145.41;;;1.96;62.14
46392;BME280;32098;49.448;7.904;2023-04-20T01:03:57;98112.47;;;1.77;62.24
46392;BME280;32098;49.448;7.904;2023-04-20T01:06:30;98093.34;;;1.83;61.67
46392;BME280;32098;49.448;7.904;2023-04-20T01:08:57;98068.50;;;1.63;61.70
46392;BME280;32098;49.448;7.904;2023-04-20T01:11:24;97994.41;;;1.29;60.95
46392;BME280;32098;49.448;7.904;2023-04-20T01:14:10;98157.72;;;2.18;61.63
46392;BME280;32098;49.448;7.904;2023-04-20T01:16:36;98155.19;;;2.25;61.45
46392;BME280;32098;49.448;7.904;2023-04-20T01:19:03;98162.91;;;2.26;61.43
46392;BME280;32098;49.448;7.904;2023-04-20T01:21:33;98154.19;;;2.26;60.90
46392;BME280;32098;49.448;7.904;2023-04-20T01:24:00;97937.53;;;0.68;60.77
46392;BME280;32098;49.448;7.904;2023-04-20T01:26:27;98147.00;;;2.19;61.00
46392;BME280;32098;49.448;7.904;2023-04-20T01:29:24;98138.38;;;2.11;61.07
46392;BME280;32098;49.448;7.904;2023-04-20T01:31:51;98058.94;;;1.62;61.12
46392;BME280;32098;49.448;7.904;2023-04-20T01:34:18;98050.28;;;1.53;60.85
46392;BME280;32098;49.448;7.904;2023-04-20T01:36:45;98131.38;;;2.18;60.85
46392;BME280;32098;49.448;7.904;2023-04-20T01:39:11;97897.88;;;0.55;60.83
46392;BME280;32098;49.448;7.904;2023-04-20T01:41:39;97962.94;;;0.98;60.91
46392;BME280;32098;49.448;7.904;2023-04-20T01:44:06;98010.47;;;0.88;62.10
46392;BME280;32098;49.448;7.904;2023-04-20T01:46:36;97979.19;;;0.71;62.46
46392;BME280;32098;49.448;7.904;2023-04-20T01:53:02;98065.03;;;1.17;62.99
46392;BME280;32098;49.448;7.904;2023-04-20T01:55:29;98070.94;;;1.19;63.19
46392;BME280;32098;49.448;7.904;2023-04-20T01:58:29;98115.00;;;1.48;62.69
46392;BME280;32098;49.448;7.904;2023-04-20T02:00:56;98104.63;;;1.46;63.04
46392;BME280;32098;49.448;7.904;2023-04-20T02:03:25;98114.44;;;1.30;63.42
46392;BME280;32098;49.448;7.904;2023-04-20T02:05:52;98117.72;;;1.32;63.35
46392;BME280;32098;49.448;7.904;2023-04-20T02:08:19;98105.91;;;1.28;63.18
46392;BME280;32098;49.448;7.904;2023-04-20T02:10:46;97854.31;;;-0.32;63.22
46392;BME280;32098;49.448;7.904;2023-04-20T02:13:20;98085.19;;;0.94;63.39
46392;BME280;32098;49.448;7.904;2023-04-20T02:15:47;98036.84;;;0.72;63.71
46392;BME280;32098;49.448;7.904;2023-04-20T02:18:18;98114.06;;;1.10;63.75
46392;BME280;32098;49.448;7.904;2023-04-20T02:20:45;97957.53;;;0.07;63.74
46392;BME280;32098;49.448;7.904;2023-04-20T02:23:12;97959.16;;;0.08;64.54
46392;BME280;32098;49.448;7.904;2023-04-20T02:28:54;98011.81;;;0.15;66.06
46392;BME280;32098;49.448;7.904;2023-04-20T02:31:20;97954.91;;;-0.01;66.21
46392;BME280;32098;49.448;7.904;2023-04-20T02:34:10;98098.75;;;0.83;65.89
46392;BME280;32098;49.448;7.904;2023-04-20T02:36:37;97923.84;;;-0.20;65.53
46392;BME280;32098;49.448;7.904;2023-04-20T02:39:04;98008.78;;;0.34;65.89
46392;BME280;32098;49.448;7.904;2023-04-20T02:45:32;98079.03;;;0.79;65.42
46392;BME280;32098;49.448;7.904;2023-04-20T02:47:59;98082.66;;;0.78;65.37
46392;BME280;32098;49.448;7.904;2023-04-20T02:50:29;97997.53;;;0.09;66.20
46392;BME280;32098;49.448;7.904;2023-04-20T02:53:17;97996.38;;;0.12;66.72
46392;BME280;32098;49.448;7.904;2023-04-20T02:55:49;98039.53;;;0.26;66.81
46392;BME280;32098;49.448;7.904;2023-04-20T02:58:34;98019.31;;;0.26;66.42
46392;BME280;32098;49.448;7.904;2023-04-20T03:04:20;97928.06;;;-0.11;66.68
46392;BME280;32098;49.448;7.904;2023-04-20T03:10:40;97973.44;;;0.06;67.09
46392;BME280;32098;49.448;7.904;2023-04-20T03:13:25;98031.81;;;0.63;66.80
46392;BME280;32098;49.448;7.904;2023-04-20T03:15:55;98050.75;;;0.81;66.27
46392;BME280;32098;49.448;7.904;2023-04-20T03:18:54;98020.69;;;0.53;65.97
46392;BME280;32098;49.448;7.904;2023-04-20T03:21:22;97800.16;;;-1.02;66.03
46392;BME280;32098;49.448;7.904;2023-04-20T03:23:49;98066.34;;;0.52;66.15
46392;BME280;32098;49.448;7.904;2023-04-20T03:26:16;97968.72;;;-0.07;66.01
46392;BME280;32098;49.448;7.904;2023-04-20T03:32:53;97872.19;;;-0.90;68.04
46392;BME280;32098;49.448;7.904;2023-04-20T03:35:39;98051.19;;;0.23;67.18
46392;BME280;32098;49.448;7.904;2023-04-20T03:38:06;97978.56;;;-0.09;66.99
46392;BME280;32098;49.448;7.904;2023-04-20T03:40:33;97831.22;;;-0.83;67.16
46392;BME280;32098;49.448;7.904;2023-04-20T03:43:01;97861.97;;;-0.69;67.11
46392;BME280;32098;49.448;7.904;2023-04-20T03:45:28;98017.06;;;0.15;66.47
46392;BME280;32098;49.448;7.904;2023-04-20T03:47:55;97860.69;;;-0.65;66.68
46392;BME280;32098;49.448;7.904;2023-04-20T03:50:23;98045.53;;;0.42;66.52
46392;BME280;32098;49.448;7.904;2023-04-20T03:52:50;98053.75;;;0.39;67.46
46392;BME280;32098;49.448;7.904;2023-04-20T03:55:17;97976.25;;;-0.04;67.43
46392;BME280;32098;49.448;7.904;2023-04-20T03:57:49;98061.19;;;0.19;67.46
46392;BME280;32098;49.448;7.904;2023-04-20T04:00:19;98046.47;;;0.02;68.38
46392;BME280;32098;49.448;7.904;2023-04-20T04:02:45;97971.25;;;-0.46;68.82
46392;BME280;32098;49.448;7.904;2023-04-20T04:05:18;97948.84;;;-0.72;69.00
46392;BME280;32098;49.448;7.904;2023-04-20T04:07:51;97702.19;;;-2.21;69.67
46392;BME280;32098;49.448;7.904;2023-04-20T04:10:18;97951.28;;;-0.55;68.56
46392;BME280;32098;49.448;7.904;2023-04-20T04:13:19;98030.06;;;-0.08;68.78
46392;BME280;32098;49.448;7.904;2023-04-20T04:15:45;97793.16;;;-1.50;68.65
46392;BME280;32098;49.448;7.904;2023-04-20T04:18:13;98030.66;;;0.18;68.35
46392;BME280;32098;49.448;7.904;2023-04-20T04:20:40;97965.44;;;-0.17;67.93
46392;BME280;32098;49.448;7.904;2023-04-20T04:23:09;98022.97;;;0.09;68.38
46392;BME280;32098;49.448;7.904;2023-04-20T04:25:45;97867.91;;;-0.83;68.13
46392;BME280;32098;49.448;7.904;2023-04-20T04:28:12;98025.09;;;0.13;67.82
46392;BME280;32098;49.448;7.904;2023-04-20T04:31:09;97897.06;;;-0.78;68.34
46392;BME280;32098;49.448;7.904;2023-04-20T04:33:48;97910.00;;;-0.69;68.36
46392;BME280;32098;49.448;7.904;2023-04-20T04:36:34;97956.88;;;-0.58;67.45
46392;BME280;32098;49.448;7.904;2023-04-20T04:39:10;97869.41;;;-1.13;68.89
46392;BME280;32098;49.448;7.904;2023-04-20T04:41:44;97808.03;;;-1.67;68.99
46392;BME280;32098;49.448;7.904;2023-04-20T04:44:19;97858.44;;;-1.09;68.72
46392;BME280;32098;49.448;7.904;2023-04-20T04:49:55;97993.59;;;0.13;82.49
46392;BME280;32098;49.448;7.904;2023-04-20T04:56:22;97867.47;;;1.49;96.36
46392;BME280;32098;49.448;7.904;2023-04-20T04:58:49;97731.88;;;-0.09;69.48
46392;BME280;32098;49.448;7.904;2023-04-20T05:01:38;98013.63;;;1.52;66.47
46392;BME280;32098;49.448;7.904;2023-04-20T05:04:05;98011.03;;;1.29;65.30
46392;BME280;32098;49.448;7.904;2023-04-20T05:09:36;97533.00;;;-2.12;66.54
46392;BME280;32098;49.448;7.904;2023-04-20T05:12:05;97728.69;;;-0.88;66.75
46392;BME280;32098;49.448;7.904;2023-04-20T05:14:32;97834.94;;;-0.23;66.96
46392;BME280;32098;49.448;7.904;2023-04-20T05:17:01;97889.09;;;0.09;67.57
46392;BME280;32098;49.448;7.904;2023-04-20T05:19:29;97739.00;;;-0.87;67.25
46392;BME280;32098;49.448;7.904;2023-04-20T05:21:58;97757.19;;;-0.93;67.40
46392;BME280;32098;49.448;7.904;2023-04-20T05:24:26;97737.22;;;-0.94;67.36
46392;BME280;32098;49.448;7.904;2023-04-20T05:30:41;97988.09;;;0.70;67.13
46392;BME280;32098;49.448;7.904;2023-04-20T05:33:18;97838.56;;;-0.24;67.18
46392;BME280;32098;49.448;7.904;2023-04-20T05:35:45;98003.44;;;0.81;67.58
46392;BME280;32098;49.448;7.904;2023-04-20T05:38:17;97917.19;;;0.00;67.77
46392;BME280;32098;49.448;7.904;2023-04-20T05:40:44;97923.00;;;0.18;67.83
46392;BME280;32098;49.448;7.904;2023-04-20T05:43:12;97838.72;;;-0.17;67.91
46392;BME280;32098;49.448;7.904;2023-04-20T05:45:40;98051.97;;;1.01;68.96
46392;BME280;32098;49.448;7.904;2023-04-20T05:48:12;97759.78;;;-0.77;69.00
46392;BME280;32098;49.448;7.904;2023-04-20T05:50:39;97967.81;;;0.78;70.34
46392;BME280;32098;49.448;7.904;2023-04-20T05:53:29;98015.84;;;1.26;70.65
46392;BME280;32098;49.448;7.904;2023-04-20T05:55:56;97977.03;;;1.05;69.13
46392;BME280;32098;49.448;7.904;2023-04-20T05:58:23;97869.06;;;0.39;68.16
46392;BME280;32098;49.448;7.904;2023-04-20T06:00:51;98013.16;;;1.48;68.04
46392;BME280;32098;49.448;7.904;2023-04-20T06:03:17;98003.47;;;1.49;68.06
46392;BME280;32098;49.448;7.904;2023-04-20T06:05:50;97863.00;;;0.61;67.88
46392;BME280;32098;49.448;7.904;2023-04-20T06:08:17;98028.69;;;1.81;67.93
46392;BME280;32098;49.448;7.904;2023-04-20T06:10:45;97847.50;;;0.88;68.42
46392;BME280;32098;49.448;7.904;2023-04-20T06:13:11;98022.34;;;1.90;68.27
46392;BME280;32098;49.448;7.904;2023-04-20T06:15:38;98034.97;;;2.09;68.27
46392;BME280;32098;49.448;7.904;2023-04-20T06:22:35;97905.06;;;1.58;69.06
46392;BME280;32098;49.448;7.904;2023-04-20T06:25:02;98006.44;;;2.56;69.08
46392;BME280;32098;49.448;7.904;2023-04-20T06:27:30;97850.66;;;1.80;69.18
46392;BME280;32098;49.448;7.904;2023-04-20T06:29:57;98020.44;;;2.86;69.21
46392;BME280;32098;49.448;7.904;2023-04-20T06:32:23;97719.00;;;1.08;68.76
46392;BME280;32098;49.448;7.904;2023-04-20T06:34:50;97850.88;;;2.14;68.72
46392;BME280;32098;49.448;7.904;2023-04-20T06:37:18;98015.88;;;3.16;68.03
46392;BME280;32098;49.448;7.904;2023-04-20T06:39:46;97846.63;;;2.13;69.67
46392;BME280;32098;49.448;7.904;2023-04-20T06:42:20;97731.41;;;0.85;70.78
46392;BME280;32098;49.448;7.904;2023-04-20T06:44:47;97708.09;;;0.82;72.65
46392;BME280;32098;49.448;7.904;2023-04-20T06:47:13;98049.91;;;2.46;73.64
46392;BME280;32098;49.448;7.904;2023-04-20T06:49:41;98036.34;;;2.63;73.36
46392;BME280;32098;49.448;7.904;2023-04-20T06:52:09;97882.47;;;1.78;72.80
46392;BME280;32098;49.448;7.904;2023-04-20T06:54:37;98044.66;;;2.81;72.21
46392;BME280;32098;49.448;7.904;2023-04-20T06:57:08;97994.66;;;3.03;72.07
46392;BME280;32098;49.448;7.904;2023-04-20T06:59:35;97941.06;;;2.66;72.10
46392;BME280;32098;49.448;7.904;2023-04-20T07:02:02;97558.78;;;-0.02;72.34
46392;BME280;32098;49.448;7.904;2023-04-20T07:04:33;97916.84;;;2.06;74.27
46392;BME280;32098;49.448;7.904;2023-04-20T07:07:00;97736.13;;;1.04;72.80
46392;BME280;32098;49.448;7.904;2023-04-20T07:09:27;97986.84;;;2.95;73.07
46392;BME280;32098;49.448;7.904;2023-04-20T07:11:54;97853.50;;;2.14;72.73
46392;BME280;32098;49.448;7.904;2023-04-20T07:14:22;97697.22;;;1.00;73.91
46392;BME280;32098;49.448;7.904;2023-04-20T07:16:52;97918.69;;;2.41;73.55
46392;BME280;32098;49.448;7.904;2023-04-20T07:19:19;97719.94;;;1.36;72.51
46392;BME280;32098;49.448;7.904;2023-04-20T07:21:46;97718.63;;;1.11;73.44
46392;BME280;32098;49.448;7.904;2023-04-20T07:24:13;97719.91;;;1.15;73.95
46392;BME280;32098;49.448;7.904;2023-04-20T07:26:42;98032.88;;;2.77;73.58
46392;BME280;32098;49.448;7.904;2023-04-20T07:29:09;98027.03;;;2.97;74.52
46392;BME280;32098;49.448;7.904;2023-04-20T07:31:39;97548.56;;;0.47;73.45
46392;BME280;32098;49.448;7.904;2023-04-20T07:34:06;97853.28;;;2.87;72.35
46392;BME280;32098;49.448;7.904;2023-04-20T07:36:35;97851.72;;;2.93;70.62
46392;BME280;32098;49.448;7.904;2023-04-20T07:39:04;97743.59;;;2.23;70.09
46392;BME280;32098;49.448;7.904;2023-04-20T07:41:31;98023.88;;;3.92;69.04
46392;BME280;32098;49.448;7.904;2023-04-20T07:43:58;97868.94;;;3.16;69.67
46392;BME280;32098;49.448;7.904;2023-04-20T07:46:32;98000.41;;;3.76;69.70
46392;BME280;32098;49.448;7.904;2023-04-20T07:48:59;97990.69;;;3.56;69.43
46392;BME280;32098;49.448;7.904;2023-04-20T07:51:26;97716.69;;;2.06;69.90
46392;BME280;32098;49.448;7.904;2023-04-20T07:53:55;97714.16;;;2.19;69.03
46392;BME280;32098;49.448;7.904;2023-04-20T07:56:22;97906.09;;;3.70;69.88
46392;BME280;32098;49.448;7.904;2023-04-20T07:58:49;97979.00;;;4.33;68.67
46392;BME280;32098;49.448;7.904;2023-04-20T08:01:16;97705.97;;;2.56;69.54
46392;BME280;32098;49.448;7.904;2023-04-20T08:03:43;97735.75;;;2.50;69.85
46392;BME280;32098;49.448;7.904;2023-04-20T08:06:10;97794.31;;;2.31;69.88
46392;BME280;32098;49.448;7.904;2023-04-20T08:08:38;97986.78;;;3.79;69.34
46392;BME280;32098;49.448;7.904;2023-04-20T08:11:05;97847.56;;;2.83;70.47
46392;BME280;32098;49.448;7.904;2023-04-20T08:13:34;97749.53;;;2.52;72.31
46392;BME280;32098;49.448;7.904;2023-04-20T08:16:02;97739.78;;;3.02;71.54
46392;BME280;32098;49.448;7.904;2023-04-20T08:19:06;97996.84;;;4.25;69.62
46392;BME280;32098;49.448;7.904;2023-04-20T08:21:39;97946.41;;;4.20;69.29
46392;BME280;32098;49.448;7.904;2023-04-20T08:24:07;97926.56;;;3.96;67.27
46392;BME280;32098;49.448;7.904;2023-04-20T08:26:34;97520.47;;;1.61;65.31
46392;BME280;32098;49.448;7.904;2023-04-20T08:29:02;97771.09;;;3.86;64.28
46392;BME280;32098;49.448;7.904;2023-04-20T08:31:30;97698.75;;;3.87;63.04
46392;BME280;32098;49.448;7.904;2023-04-20T08:33:58;97826.06;;;4.24;64.67
46392;BME280;32098;49.448;7.904;2023-04-20T08:36:24;97841.16;;;3.82;65.88
46392;BME280;32098;49.448;7.904;2023-04-20T08:38:55;97528.09;;;2.05;64.39
46392;BME280;32098;49.448;7.904;2023-04-20T08:41:24;97931.56;;;4.66;65.26
46392;BME280;32098;49.448;7.904;2023-04-20T08:43:51;97688.09;;;3.07;65.39
46392;BME280;32098;49.448;7.904;2023-04-20T08:46:18;97721.16;;;3.10;66.00
46392;BME280;32098;49.448;7.904;2023-04-20T08:48:45;97979.16;;;4.66;66.55
46392;BME280;32098;49.448;7.904;2023-04-20T08:51:14;97808.00;;;3.73;65.62
46392;BME280;32098;49.448;7.904;2023-04-20T08:53:43;97679.41;;;3.20;64.48
46392;BME280;32098;49.448;7.904;2023-04-20T08:56:09;97963.06;;;5.41;64.73
46392;BME280;32098;49.448;7.904;2023-04-20T08:58:37;97687.44;;;4.26;63.35
46392;BME280;32098;49.448;7.904;2023-04-20T09:01:09;97942.22;;;6.03;61.96
46392;BME280;32098;49.448;7.904;2023-04-20T09:03:39;97973.59;;;6.13;63.08
46392;BME280;32098;49.448;7.904;2023-04-20T09:06:17;97978.53;;;5.77;61.83
46392;BME280;32098;49.448;7.904;2023-04-20T09:08:45;97747.97;;;4.15;62.28
46392;BME280;32098;49.448;7.904;2023-04-20T09:11:33;97707.28;;;3.83;61.66
46392;BME280;32098;49.448;7.904;2023-04-20T09:14:23;97936.56;;;5.61;64.91
46392;BME280;32098;49.448;7.904;2023-04-20T09:16:50;97928.38;;;5.95;64.00
46392;BME280;32098;49.448;7.904;2023-04-20T09:19:24;97852.00;;;5.66;62.80
46392;BME280;32098;49.448;7.904;2023-04-20T09:21:54;97448.47;;;3.50;61.14
46392;BME280;32098;49.448;7.904;2023-04-20T09:24:29;97473.63;;;3.98;62.50
46392;BME280;32098;49.448;7.904;2023-04-20T09:27:27;97929.63;;;6.94;61.23
46392;BME280;32098;49.448;7.904;2023-04-20T09:29:58;97658.75;;;5.39;57.46
46392;BME280;32098;49.448;7.904;2023-04-20T09:32:27;97743.78;;;6.14;56.22
46392;BME280;32098;49.448;7.904;2023-04-20T09:34:55;97775.19;;;6.17;57.95
46392;BME280;32098;49.448;7.904;2023-04-20T09:37:46;97700.47;;;5.51;59.43
46392;BME280;32098;49.448;7.904;2023-04-20T09:40:13;97547.41;;;4.77;60.79
46392;BME280;32098;49.448;7.904;2023-04-20T09:42:41;97716.72;;;6.61;59.34
46392;BME280;32098;49.448;7.904;2023-04-20T09:45:12;97524.25;;;6.04;55.36
46392;BME280;32098;49.448;7.904;2023-04-20T09:47:40;97724.31;;;7.25;56.01
46392;BME280;32098;49.448;7.904;2023-04-20T09:50:12;97766.38;;;7.28;56.26
46392;BME280;32098;49.448;7.904;2023-04-20T09:52:57;97946.00;;;7.97;56.35
46392;BME280;32098;49.448;7.904;2023-04-20T09:55:26;97777.34;;;6.89;57.96
46392;BME280;32098;49.448;7.904;2023-04-20T09:57:55;97919.34;;;7.60;57.54
46392;BME280;32098;49.448;7.904;2023-04-20T10:00:22;97748.56;;;5.98;58.34
46392;BME280;32098;49.448;7.904;2023-04-20T10:02:49;97750.38;;;6.92;57.56
46392;BME280;32098;49.448;7.904;2023-04-20T10:05:19;97923.84;;;7.84;56.42
46392;BME280;32098;49.448;7.904;2023-04-20T10:07:58;97756.91;;;6.33;58.10
46392;BME280;32098;49.448;7.904;2023-04-20T10:10:28;97712.16;;;5.36;59.79
46392;BME280;32098;49.448;7.904;2023-04-20T10:12:58;97928.16;;;6.98;62.08
46392;BME280;32098;49.448;7.904;2023-04-20T10:15:39;97885.44;;;6.31;61.46
46392;BME280;32098;49.448;7.904;2023-04-20T10:18:18;97744.06;;;5.48;62.43
46392;BME280;32098;49.448;7.904;2023-04-20T10:20:45;97774.84;;;5.49;62.38
46392;BME280;32098;49.448;7.904;2023-04-20T10:26:40;97826.84;;;5.94;61.42
46392;BME280;32098;49.448;7.904;2023-04-20T10:29:07;97897.84;;;6.43;62.86
46392;BME280;32098;49.448;7.904;2023-04-20T10:35:25;97789.16;;;5.28;62.95
46392;BME280;32098;49.448;7.904;2023-04-20T10:37:51;97657.53;;;4.58;61.86
46392;BME280;32098;49.448;7.904;2023-04-20T10:40:38;97874.97;;;5.98;63.38
46392;BME280;32098;49.448;7.904;2023-04-20T10:47:06;97833.34;;;6.05;61.97
46392;BME280;32098;49.448;7.904;2023-04-20T10:50:13;97865.66;;;6.64;61.09
46392;BME280;32098;49.448;7.904;2023-04-20T10:55:58;97734.94;;;5.88;56.71
46392;BME280;32098;49.448;7.904;2023-04-20T10:58:25;97564.38;;;5.14;56.60
46392;BME280;32098;49.448;7.904;2023-04-20T11:00:56;97851.50;;;7.08;55.00
46392;BME280;32098;49.448;7.904;2023-04-20T11:03:24;97811.25;;;6.87;57.60
46392;BME280;32098;49.448;7.904;2023-04-20T11:05:51;97678.19;;;5.71;60.44
46392;BME280;32098;49.448;7.904;2023-04-20T11:08:18;97706.41;;;5.90;61.52
46392;BME280;32098;49.448;7.904;2023-04-20T11:10:45;97601.09;;;4.84;60.85
46392;BME280;32098;49.448;7.904;2023-04-20T11:13:22;97832.94;;;6.77;59.78
46392;BME280;32098;49.448;7.904;2023-04-20T11:15:51;97851.09;;;6.80;59.43
46392;BME280;32098;49.448;7.904;2023-04-20T11:18:48;97771.66;;;5.85;58.61
46392;BME280;32098;49.448;7.904;2023-04-20T11:21:18;97794.34;;;6.50;59.78
46392;BME280;32098;49.448;7.904;2023-04-20T11:23:48;97590.63;;;5.15;58.56
46392;BME280;32098;49.448;7.904;2023-04-20T11:26:15;97838.38;;;6.89;56.86
46392;BME280;32098;49.448;7.904;2023-04-20T11:28:53;97684.53;;;6.01;57.94
46392;BME280;32098;49.448;7.904;2023-04-20T11:31:22;97393.94;;;4.08;57.91
46392;BME280;32098;49.448;7.904;2023-04-20T11:33:49;97820.66;;;6.83;57.96
46392;BME280;32098;49.448;7.904;2023-04-20T11:36:43;97819.47;;;6.79;58.33
46392;BME280;32098;49.448;7.904;2023-04-20T11:39:25;97839.13;;;6.96;57.75
46392;BME280;32098;49.448;7.904;2023-04-20T11:42:26;97816.50;;;6.93;58.37
46392;BME280;32098;49.448;7.904;2023-04-20T11:44:55;97770.81;;;6.29;57.50
46392;BME280;32098;49.448;7.904;2023-04-20T11:47:24;97627.28;;;5.63;59.32
46392;BME280;32098;49.448;7.904;2023-04-20T11:49:51;97775.56;;;6.51;59.31
46392;BME280;32098;49.448;7.904;2023-04-20T11:52:18;97784.97;;;6.47;58.34
46392;BME280;32098;49.448;7.904;2023-04-20T11:54:45;97770.94;;;6.40;57.82
46392;BME280;32098;49.448;7.904;2023-04-20T11:57:17;97811.56;;;6.97;58.55
46392;BME280;32098;49.448;7.904;2023-04-20T11:59:44;97777.44;;;7.25;56.93
46392;BME280;32098;49.448;7.904;2023-04-20T12:02:14;97772.75;;;7.27;56.42
46392;BME280;32098;49.448;7.904;2023-04-20T12:04:41;97659.56;;;6.16;58.72
46392;BME280;32098;49.448;7.904;2023-04-20T12:07:43;97807.06;;;6.97;61.13
46392;BME280;32098;49.448;7.904;2023-04-20T12:10:32;97792.06;;;7.09;62.05
46392;BME280;32098;49.448;7.904;2023-04-20T12:13:02;97671.41;;;6.13;60.50
46392;BME280;32098;49.448;7.904;2023-04-20T12:15:42;97804.56;;;7.02;62.67
46392;BME280;32098;49.448;7.904;2023-04-20T12:18:24;97829.81;;;7.18;58.33
46392;BME280;32098;49.448;7.904;2023-04-20T12:20:53;97836.16;;;6.86;58.35
46392;BME280;32098;49.448;7.904;2023-04-20T12:23:20;97820.31;;;6.73;58.57
46392;BME280;32098;49.448;7.904;2023-04-20T12:26:08;97795.34;;;7.05;58.87
46392;BME280;32098;49.448;7.904;2023-04-20T12:28:36;97538.53;;;5.54;60.63
46392;BME280;32098;49.448;7.904;2023-04-20T12:31:36;97786.31;;;7.37;59.60
46392;BME280;32098;49.448;7.904;2023-04-20T12:37:40;97778.59;;;7.72;58.66
46392;BME280;32098;49.448;7.904;2023-04-20T12:40:25;97788.69;;;7.45;58.89
46392;BME280;32098;49.448;7.904;2023-04-20T12:46:45;97670.84;;;6.79;57.35
46392;BME280;32098;49.448;7.904;2023-04-20T12:49:13;97661.94;;;6.48;57.27
46392;BME280;32098;49.448;7.904;2023-04-20T12:51:40;97672.28;;;6.00;60.96
46392;BME280;32098;49.448;7.904;2023-04-20T13:02:07;97869.28;;;5.88;72.93
46392;BME280;32098;49.448;7.904;2023-04-20T13:12:40;97800.03;;;3.26;83.34
46392;BME280;32098;49.448;7.904;2023-04-20T13:15:07;97893.44;;;4.00;84.59
46392;BME280;32098;49.448;7.904;2023-04-20T13:17:47;97696.94;;;3.34;85.82
46392;BME280;32098;49.448;7.904;2023-04-20T13:20:16;97699.53;;;3.75;86.23
46392;BME280;32098;49.448;7.904;2023-04-20T13:25:54;97726.66;;;4.16;85.70
46392;BME280;32098;49.448;7.904;2023-04-20T13:28:24;97571.75;;;3.56;86.08
46392;BME280;32098;49.448;7.904;2023-04-20T13:31:09;97706.53;;;4.48;85.85
46392;BME280;32098;49.448;7.904;2023-04-20T13:33:36;97600.41;;;3.79;85.50
46392;BME280;32098;49.448;7.904;2023-04-20T13:36:03;97582.91;;;3.65;82.78
46392;BME280;32098;49.448;7.904;2023-04-20T13:38:36;97864.44;;;5.19;83.27
46392;BME280;32098;49.448;7.904;2023-04-20T13:41:03;97742.31;;;4.37;83.91
46392;BME280;32098;49.448;7.904;2023-04-20T13:43:56;97866.13;;;5.33;84.08
46392;BME280;32098;49.448;7.904;2023-04-20T13:46:23;97846.53;;;4.95;82.33
46392;BME280;32098;49.448;7.904;2023-04-20T13:51:42;97591.25;;;3.75;83.71
46392;BME280;32098;49.448;7.904;2023-04-20T13:54:09;97879.34;;;5.47;82.46
46392;BME280;32098;49.448;7.904;2023-04-20T13:56:36;97357.50;;;2.74;82.51
46392;BME280;32098;49.448;7.904;2023-04-20T13:59:03;97698.63;;;4.74;79.45
46392;BME280;32098;49.448;7.904;2023-04-20T14:01:43;97700.84;;;4.70;81.91
46392;BME280;32098;49.448;7.904;2023-04-20T14:04:10;97556.94;;;4.01;80.91
46392;BME280;32098;49.448;7.904;2023-04-20T14:06:37;97705.72;;;4.80;81.98
46392;BME280;32098;49.448;7.904;2023-04-20T14:09:06;97579.91;;;3.81;80.33
46392;BME280;32098;49.448;7.904;2023-04-20T14:11:36;97686.00;;;4.63;80.22
46392;BME280;32098;49.448;7.904;2023-04-20T14:14:03;97662.63;;;4.53;78.54
46392;BME280;32098;49.448;7.904;2023-04-20T14:16:29;97842.47;;;5.52;80.70
46392;BME280;32098;49.448;7.904;2023-04-20T14:18:59;97675.00;;;4.72;80.62
46392;BME280;32098;49.448;7.904;2023-04-20T14:21:26;97643.47;;;4.71;83.16
46392;BME280;32098;49.448;7.904;2023-04-20T14:23:53;97584.97;;;4.28;83.06
46392;BME280;32098;49.448;7.904;2023-04-20T14:26:41;97804.44;;;5.90;78.02
46392;BME280;32098;49.448;7.904;2023-04-20T14:29:09;97732.06;;;5.46;78.46
46392;BME280;32098;49.448;7.904;2023-04-20T14:31:36;97741.78;;;5.65;81.87
46392;BME280;32098;49.448;7.904;2023-04-20T14:34:11;97763.94;;;6.21;81.30
46392;BME280;32098;49.448;7.904;2023-04-20T14:36:41;97616.06;;;5.16;76.25
46392;BME280;32098;49.448;7.904;2023-04-20T14:39:22;97547.81;;;4.81;78.48
46392;BME280;32098;49.448;7.904;2023-04-20T14:41:49;97537.25;;;4.81;76.86
46392;BME280;32098;49.448;7.904;2023-04-20T14:44:16;97557.81;;;4.72;74.62
46392;BME280;32098;49.448;7.904;2023-04-20T14:46:44;97669.72;;;5.50;75.24
46392;BME280;32098;49.448;7.904;2023-04-20T14:49:11;97769.00;;;6.29;73.28
46392;BME280;32098;49.448;7.904;2023-04-20T14:51:40;97820.00;;;6.87;73.87
46392;BME280;32098;49.448;7.904;2023-04-20T14:54:07;97640.28;;;5.64;71.93
46392;BME280;32098;49.448;7.904;2023-04-20T14:57:03;97799.41;;;6.83;74.83